Terminal Aerodrome Forecast
Issued by NWS

Home | Current Version | Previous Version | Text Only | Print | Product List | Glossary On
Versions: 1 2 3 4 5 6 7 8 9 10 11 12 13 14
000
FTUS43 KAPX 302320
TAFAPN
TAF
KAPN 302320Z 3100/3124 08007KT P6SM BKN120
     FM310200 VRB03KT P6SM SCT040 BKN100
     FM310600 VRB03KT P6SM VCSH OVC040
     FM311500 10007KT P6SM VCSH BKN060
     FM311800 08008KT P6SM SCT035 BKN180=

USA.gov is the U.S. government's official web portal to all federal, state and local government web resources and services.